Time;durP1;ratioP1;P1;durP2;ratioP2;P2;SDS_P1;SDS_P2;PMS_P1;PMS_P2;Temp;Humidity;BMP_temperature;BMP_pressure;BME280_temperature;BME280_humidity;BME280_pressure;Samples;Min_cycle;Max_cycle;Signal;HPM_P1;HPM_P2
2023/03/26 00:00:14;;;;;;;26.88;3.90;;;;;;;;;;4977641;28;20084;-69
2023/03/26 00:02:41;;;;;;;28.60;6.55;;;;;;;;;;4996311;28;20049;-71
2023/03/26 00:05:08;;;;;;;27.08;5.88;;;;;;;;;;4997207;28;20072;-72
2023/03/26 00:07:35;;;;;;;34.20;6.80;;;;;;;;;;4996666;28;20053;-70
2023/03/26 00:10:00;;;;;;;25.60;6.47;;;;;;;;;;4995304;28;20493;-71
2023/03/26 00:12:26;;;;;;;33.15;7.25;;;;;;;;;;4993760;28;20130;-70
2023/03/26 00:14:51;;;;;;;35.42;7.10;;;;;;;;;;4973657;28;20112;-70
2023/03/26 00:17:17;;;;;;;27.77;6.30;;;;;;;;;;4992523;28;20391;-70
2023/03/26 00:19:42;;;;;;;31.13;5.45;;;;;;;;;;4990605;28;20156;-70
2023/03/26 00:22:12;;;;;;;25.60;4.90;;;;;;;;;;4991597;28;20121;-71
2023/03/26 00:24:39;;;;;;;36.55;7.95;;;;;;;;;;4990728;28;20098;-70
2023/03/26 00:27:05;;;;;;;33.63;8.40;;;;;;;;;;4990121;28;20037;-71
2023/03/26 00:29:32;;;;;;;35.80;6.75;;;;;;;;;;4970099;28;20747;-72
2023/03/26 00:31:57;;;;;;;39.35;8.32;;;;;;;;;;4990094;28;20041;-70
2023/03/26 00:34:23;;;;;;;42.45;12.10;;;;;;;;;;4969435;28;20033;-69
2023/03/26 00:36:53;;;;;;;34.25;7.90;;;;;;;;;;4986009;28;20041;-71
2023/03/26 00:39:18;;;;;;;22.17;5.68;;;;;;;;;;4990939;28;20122;-70
2023/03/26 00:41:44;;;;;;;31.55;5.47;;;;;;;;;;4994458;28;20088;-70
2023/03/26 00:44:09;;;;;;;35.35;9.43;;;;;;;;;;4996328;28;20092;-69
2023/03/26 00:46:37;;;;;;;29.52;7.70;;;;;;;;;;4996105;28;20383;-69
2023/03/26 00:49:02;;;;;;;29.02;5.55;;;;;;;;;;4996791;28;20087;-69
2023/03/26 00:51:32;;;;;;;33.35;7.97;;;;;;;;;;4995867;28;20080;-69
2023/03/26 00:54:00;;;;;;;29.23;6.88;;;;;;;;;;4978699;28;20280;-70
2023/03/26 00:56:25;;;;;;;31.75;6.63;;;;;;;;;;4996143;28;20754;-72
2023/03/26 00:58:50;;;;;;;29.35;7.82;;;;;;;;;;4978360;28;20067;-68
2023/03/26 01:01:25;;;;;;;26.20;7.20;;;;;;;;;;4996963;28;20089;-69
2023/03/26 01:03:58;;;;;;;25.25;6.03;;;;;;;;;;4982717;28;20040;-70
2023/03/26 01:06:26;;;;;;;23.95;6.88;;;;;;;;;;4983348;28;20666;-70
2023/03/26 01:08:53;;;;;;;31.02;7.18;;;;;;;;;;4983400;28;20057;-70
2023/03/26 01:11:18;;;;;;;28.30;7.78;;;;;;;;;;4996103;28;20041;-70
2023/03/26 01:13:49;;;;;;;64.32;22.13;;;;;;;;;;4990788;28;20042;-69
2023/03/26 01:16:21;;;;;;;38.67;12.52;;;;;;;;;;4995522;28;20091;-70
2023/03/26 01:18:47;;;;;;;45.95;11.02;;;;;;;;;;4994483;28;20040;-69
2023/03/26 01:21:21;;;;;;;82.28;30.77;;;;;;;;;;4992468;28;20645;-69
2023/03/26 01:23:47;;;;;;;63.60;23.27;;;;;;;;;;4990377;28;20141;-69
2023/03/26 01:26:17;;;;;;;53.78;13.15;;;;;;;;;;4975895;28;20119;-70
2023/03/26 01:28:45;;;;;;;39.28;8.13;;;;;;;;;;4967917;28;20960;-69
2023/03/26 01:31:17;;;;;;;33.70;6.65;;;;;;;;;;4969431;28;20179;-71
2023/03/26 01:33:50;;;;;;;39.28;6.13;;;;;;;;;;4992367;28;20594;-70
2023/03/26 01:36:20;;;;;;;37.90;5.63;;;;;;;;;;4990992;28;20037;-69
2023/03/26 01:38:47;;;;;;;29.92;5.63;;;;;;;;;;4991275;28;20033;-69
2023/03/26 01:41:12;;;;;;;37.70;6.20;;;;;;;;;;5005309;28;20034;-71
2023/03/26 01:43:40;;;;;;;38.05;5.65;;;;;;;;;;4989213;28;20499;-70
2023/03/26 01:46:08;;;;;;;43.33;6.10;;;;;;;;;;4990226;28;20034;-70
2023/03/26 01:48:35;;;;;;;36.05;5.93;;;;;;;;;;4995131;28;20044;-70
2023/03/26 01:51:00;;;;;;;33.85;6.22;;;;;;;;;;4980289;28;20071;-71
2023/03/26 01:53:26;;;;;;;35.33;5.22;;;;;;;;;;4993416;28;20049;-71
2023/03/26 01:55:56;;;;;;;27.85;5.72;;;;;;;;;;4971970;28;20759;-70
2023/03/26 01:58:26;;;;;;;33.83;6.13;;;;;;;;;;4989837;28;20062;-70
2023/03/26 02:01:00;;;;;;;38.95;6.15;;;;;;;;;;4990075;28;20746;-70
2023/03/26 02:03:30;;;;;;;24.92;4.90;;;;;;;;;;4999463;28;20041;-69
2023/03/26 02:06:04;;;;;;;27.27;5.10;;;;;;;;;;4975488;28;20065;-71
2023/03/26 02:08:41;;;;;;;27.50;5.05;;;;;;;;;;4998473;28;20371;-69
2023/03/26 02:11:11;;;;;;;25.80;4.75;;;;;;;;;;4994211;28;20123;-69
2023/03/26 02:13:37;;;;;;;38.25;5.80;;;;;;;;;;4998590;28;20045;-71
2023/03/26 02:16:04;;;;;;;30.92;5.22;;;;;;;;;;4998788;28;20048;-70
2023/03/26 02:18:36;;;;;;;33.80;5.10;;;;;;;;;;4998618;28;20029;-70
2023/03/26 02:21:08;;;;;;;29.02;4.68;;;;;;;;;;4995415;28;20042;-70
2023/03/26 02:23:37;;;;;;;32.65;4.65;;;;;;;;;;4997997;28;20041;-71
2023/03/26 02:26:06;;;;;;;27.25;4.93;;;;;;;;;;4996713;28;20057;-69
2023/03/26 02:28:31;;;;;;;33.50;5.82;;;;;;;;;;4996452;28;20624;-71
2023/03/26 02:31:00;;;;;;;20.70;4.78;;;;;;;;;;4997677;28;20041;-70
2023/03/26 02:33:26;;;;;;;31.77;5.20;;;;;;;;;;4996982;28;20562;-71
2023/03/26 02:35:51;;;;;;;26.27;4.90;;;;;;;;;;4996172;28;20048;-70
2023/03/26 02:38:17;;;;;;;23.25;4.60;;;;;;;;;;4995151;28;20058;-71
2023/03/26 02:40:43;;;;;;;30.60;6.47;;;;;;;;;;4998330;28;20049;-70
2023/03/26 02:43:08;;;;;;;31.15;5.82;;;;;;;;;;4995456;28;20095;-71
2023/03/26 02:45:33;;;;;;;30.02;5.18;;;;;;;;;;4996236;28;20057;-71
2023/03/26 02:47:59;;;;;;;21.73;5.35;;;;;;;;;;4991487;28;20041;-70
2023/03/26 02:50:25;;;;;;;30.23;5.45;;;;;;;;;;4990564;28;20042;-70
2023/03/26 02:52:50;;;;;;;26.63;5.50;;;;;;;;;;4991151;28;21027;-70
2023/03/26 02:55:20;;;;;;;31.38;6.65;;;;;;;;;;4991830;28;20184;-71
2023/03/26 02:57:45;;;;;;;34.70;7.30;;;;;;;;;;4991531;28;20038;-70
2023/03/26 03:00:14;;;;;;;31.00;7.97;;;;;;;;;;4991617;28;20038;-70
2023/03/26 03:02:39;;;;;;;36.42;7.57;;;;;;;;;;4991410;28;20516;-70
2023/03/26 03:05:04;;;;;;;37.03;9.00;;;;;;;;;;4968314;28;20037;-70
2023/03/26 03:07:30;;;;;;;37.22;9.00;;;;;;;;;;4989828;28;20042;-70
2023/03/26 03:10:01;;;;;;;29.02;8.43;;;;;;;;;;4987454;28;20044;-70
2023/03/26 03:12:26;;;;;;;35.20;9.98;;;;;;;;;;4973597;28;20050;-72
2023/03/26 03:14:51;;;;;;;40.42;11.30;;;;;;;;;;4995071;28;20042;-70
2023/03/26 03:17:19;;;;;;;37.17;13.00;;;;;;;;;;4994932;28;20104;-70
2023/03/26 03:19:44;;;;;;;41.20;11.90;;;;;;;;;;4992985;28;20038;-71
2023/03/26 03:22:10;;;;;;;42.33;12.25;;;;;;;;;;4971320;28;20049;-71
2023/03/26 03:24:38;;;;;;;41.05;12.85;;;;;;;;;;4994100;28;20048;-70
2023/03/26 03:27:04;;;;;;;35.05;12.45;;;;;;;;;;4972281;28;20042;-71
2023/03/26 03:29:29;;;;;;;41.63;12.68;;;;;;;;;;4987139;28;20040;-70
2023/03/26 03:31:58;;;;;;;35.03;11.45;;;;;;;;;;4985263;28;20108;-70
2023/03/26 03:34:24;;;;;;;39.08;12.18;;;;;;;;;;4984961;28;21043;-73
2023/03/26 03:36:51;;;;;;;44.30;11.68;;;;;;;;;;4993600;28;20030;-71
2023/03/26 03:39:17;;;;;;;32.42;12.75;;;;;;;;;;4993149;28;20040;-70
2023/03/26 03:41:42;;;;;;;37.42;11.95;;;;;;;;;;4993125;28;20410;-70
2023/03/26 03:44:07;;;;;;;40.30;12.48;;;;;;;;;;4984486;28;20124;-70
2023/03/26 03:46:32;;;;;;;31.42;10.38;;;;;;;;;;4990420;28;20034;-70
2023/03/26 03:48:58;;;;;;;36.45;10.40;;;;;;;;;;4980935;28;20610;-72
2023/03/26 03:51:28;;;;;;;31.85;11.52;;;;;;;;;;4989255;28;20068;-70
2023/03/26 03:53:54;;;;;;;36.55;11.43;;;;;;;;;;4989382;28;20141;-70
2023/03/26 03:56:23;;;;;;;35.03;11.65;;;;;;;;;;4990531;28;20037;-69
2023/03/26 03:58:48;;;;;;;31.17;9.90;;;;;;;;;;4989654;28;20033;-69
2023/03/26 04:01:16;;;;;;;30.83;10.00;;;;;;;;;;4969941;28;20038;-68
2023/03/26 04:03:45;;;;;;;31.67;10.45;;;;;;;;;;4993696;28;20041;-71
2023/03/26 04:06:12;;;;;;;33.03;9.97;;;;;;;;;;4995705;28;20084;-71
2023/03/26 04:08:39;;;;;;;30.00;9.40;;;;;;;;;;4994908;28;20038;-71
2023/03/26 04:11:07;;;;;;;26.98;8.07;;;;;;;;;;4994811;28;20096;-71
2023/03/26 04:13:32;;;;;;;29.58;8.02;;;;;;;;;;4994814;28;20049;-70
2023/03/26 04:15:57;;;;;;;26.75;8.25;;;;;;;;;;4970470;28;20040;-72
2023/03/26 04:18:23;;;;;;;33.10;8.65;;;;;;;;;;4994778;28;20387;-70
2023/03/26 04:20:48;;;;;;;35.28;11.07;;;;;;;;;;4995945;28;20044;-72
2023/03/26 04:23:15;;;;;;;44.38;13.70;;;;;;;;;;4994387;28;20056;-71
2023/03/26 04:25:47;;;;;;;32.88;14.60;;;;;;;;;;4996187;28;20038;-71
2023/03/26 04:28:25;;;;;;;35.53;15.13;;;;;;;;;;4995876;28;20041;-71
2023/03/26 04:30:53;;;;;;;39.13;13.90;;;;;;;;;;4995093;28;20471;-71
2023/03/26 04:33:21;;;;;;;35.35;11.27;;;;;;;;;;4979016;28;20092;-69
2023/03/26 04:35:48;;;;;;;40.55;11.02;;;;;;;;;;4989673;28;20090;-71
2023/03/26 04:38:17;;;;;;;32.90;11.00;;;;;;;;;;4990490;28;20065;-70
2023/03/26 04:40:46;;;;;;;46.65;13.75;;;;;;;;;;4991320;28;20046;-70
2023/03/26 04:43:18;;;;;;;51.78;17.27;;;;;;;;;;4983095;28;20136;-70
2023/03/26 04:45:44;;;;;;;53.30;17.40;;;;;;;;;;4992788;28;20041;-70
2023/03/26 04:48:13;;;;;;;40.33;14.20;;;;;;;;;;4992480;28;20129;-70
2023/03/26 04:50:39;;;;;;;45.38;15.20;;;;;;;;;;4990376;28;20168;-70
2023/03/26 04:53:04;;;;;;;33.50;13.15;;;;;;;;;;4985341;28;20518;-71
2023/03/26 04:55:38;;;;;;;40.95;13.82;;;;;;;;;;4991383;28;20033;-72
2023/03/26 04:58:04;;;;;;;39.10;14.25;;;;;;;;;;4985658;28;20045;-70
2023/03/26 05:00:30;;;;;;;41.05;14.55;;;;;;;;;;5005885;28;20037;-71
2023/03/26 05:02:58;;;;;;;35.47;12.48;;;;;;;;;;4990324;28;20045;-72
2023/03/26 05:05:24;;;;;;;37.85;12.45;;;;;;;;;;4990459;28;20249;-70
2023/03/26 05:07:50;;;;;;;37.53;12.82;;;;;;;;;;4988702;28;20128;-70
2023/03/26 05:10:15;;;;;;;40.90;12.02;;;;;;;;;;4987620;28;20041;-70
2023/03/26 05:12:41;;;;;;;36.88;12.55;;;;;;;;;;4989281;28;20128;-72
2023/03/26 05:15:09;;;;;;;37.78;10.68;;;;;;;;;;4988330;28;20048;-72
2023/03/26 05:17:40;;;;;;;39.00;13.43;;;;;;;;;;4992853;28;20049;-70
2023/03/26 05:20:05;;;;;;;34.88;12.30;;;;;;;;;;4992132;28;20037;-71
2023/03/26 05:22:30;;;;;;;34.10;13.20;;;;;;;;;;4998224;28;20040;-72
2023/03/26 05:24:56;;;;;;;36.40;13.38;;;;;;;;;;4995619;28;20098;-70
2023/03/26 05:27:23;;;;;;;35.50;13.05;;;;;;;;;;4978173;28;20038;-69
2023/03/26 05:29:49;;;;;;;36.38;14.00;;;;;;;;;;4965309;28;20655;-70
2023/03/26 05:32:14;;;;;;;35.65;14.07;;;;;;;;;;4997827;28;20037;-70
2023/03/26 05:34:40;;;;;;;35.65;14.00;;;;;;;;;;4997215;28;20041;-68
2023/03/26 05:37:05;;;;;;;37.00;14.73;;;;;;;;;;4997649;28;20172;-71
2023/03/26 05:39:31;;;;;;;34.35;14.55;;;;;;;;;;4996613;28;20171;-70
2023/03/26 05:41:56;;;;;;;37.35;13.20;;;;;;;;;;4997105;28;20044;-72
2023/03/26 05:44:24;;;;;;;35.65;12.77;;;;;;;;;;4996329;28;20141;-72
2023/03/26 05:46:50;;;;;;;37.88;12.50;;;;;;;;;;4998051;28;21144;-71
2023/03/26 05:49:15;;;;;;;28.23;10.00;;;;;;;;;;4998184;28;20061;-70
2023/03/26 05:51:43;;;;;;;35.47;10.77;;;;;;;;;;4997998;28;20037;-72
2023/03/26 05:54:08;;;;;;;36.60;10.68;;;;;;;;;;4996960;28;20080;-72
2023/03/26 05:56:34;;;;;;;29.25;10.23;;;;;;;;;;4996512;28;20747;-71
2023/03/26 05:59:02;;;;;;;27.15;10.73;;;;;;;;;;4995645;28;20045;-71
2023/03/26 06:01:28;;;;;;;28.60;10.30;;;;;;;;;;4997425;28;20869;-71
2023/03/26 06:03:53;;;;;;;35.15;10.75;;;;;;;;;;4996611;28;20144;-71
2023/03/26 06:06:19;;;;;;;32.90;10.05;;;;;;;;;;4979977;28;20458;-71
2023/03/26 06:08:47;;;;;;;24.25;8.73;;;;;;;;;;4978526;28;20588;-72
2023/03/26 06:11:13;;;;;;;25.92;8.25;;;;;;;;;;4997252;28;20046;-72
2023/03/26 06:13:38;;;;;;;23.30;8.00;;;;;;;;;;4990367;28;20045;-71
2023/03/26 06:16:08;;;;;;;34.15;8.45;;;;;;;;;;4990624;28;20042;-72
2023/03/26 06:18:35;;;;;;;30.73;7.63;;;;;;;;;;4998193;28;20037;-70
2023/03/26 06:21:02;;;;;;;21.10;5.97;;;;;;;;;;4998216;28;22202;-72
2023/03/26 06:23:27;;;;;;;26.95;6.43;;;;;;;;;;4997090;28;20037;-72
2023/03/26 06:25:56;;;;;;;27.33;6.50;;;;;;;;;;4999081;28;20037;-71
2023/03/26 06:28:21;;;;;;;24.33;6.00;;;;;;;;;;4996991;28;20499;-71
2023/03/26 06:30:49;;;;;;;23.48;5.85;;;;;;;;;;4997733;28;20041;-71
2023/03/26 06:33:14;;;;;;;25.95;5.78;;;;;;;;;;4981755;28;20049;-72
2023/03/26 06:35:41;;;;;;;23.83;5.38;;;;;;;;;;4998297;28;20124;-73
2023/03/26 06:38:06;;;;;;;33.20;6.40;;;;;;;;;;4998470;28;20041;-72
2023/03/26 06:40:35;;;;;;;25.90;5.55;;;;;;;;;;5011536;28;20493;-71
2023/03/26 06:43:00;;;;;;;22.13;6.18;;;;;;;;;;4996866;28;20543;-72
2023/03/26 06:45:26;;;;;;;23.38;6.30;;;;;;;;;;4998559;28;20042;-71
2023/03/26 06:47:51;;;;;;;22.63;5.85;;;;;;;;;;4997702;28;20484;-72
2023/03/26 06:50:19;;;;;;;22.98;5.78;;;;;;;;;;4999052;28;20038;-72
2023/03/26 06:52:44;;;;;;;18.70;5.13;;;;;;;;;;4998167;28;20160;-72
2023/03/26 06:55:10;;;;;;;20.65;5.43;;;;;;;;;;4998666;28;20034;-71
2023/03/26 06:57:36;;;;;;;21.45;6.22;;;;;;;;;;4997984;28;20042;-70
2023/03/26 07:00:02;;;;;;;23.50;5.60;;;;;;;;;;4987931;28;20052;-70
2023/03/26 07:02:27;;;;;;;20.88;5.38;;;;;;;;;;4996242;28;20045;-71
2023/03/26 07:04:53;;;;;;;22.23;5.07;;;;;;;;;;4997282;28;20088;-72
2023/03/26 07:07:20;;;;;;;25.38;6.15;;;;;;;;;;4964948;28;20052;-71
2023/03/26 07:09:46;;;;;;;21.83;4.63;;;;;;;;;;4972208;28;20045;-71
2023/03/26 07:12:12;;;;;;;19.55;4.43;;;;;;;;;;4998791;28;20038;-72
2023/03/26 07:14:40;;;;;;;22.73;4.35;;;;;;;;;;4996394;28;20115;-72
2023/03/26 07:17:06;;;;;;;23.30;4.25;;;;;;;;;;4997700;28;20487;-73
2023/03/26 07:19:31;;;;;;;19.35;4.80;;;;;;;;;;4997472;28;20057;-71
2023/03/26 07:21:57;;;;;;;17.55;4.10;;;;;;;;;;4998215;28;20103;-72
2023/03/26 07:24:23;;;;;;;22.63;4.03;;;;;;;;;;4994083;28;20041;-72
2023/03/26 07:26:54;;;;;;;25.15;3.40;;;;;;;;;;4995824;28;20120;-71
2023/03/26 07:29:26;;;;;;;19.63;3.58;;;;;;;;;;4978160;28;20671;-72
2023/03/26 07:32:05;;;;;;;27.23;5.03;;;;;;;;;;4984835;28;20100;-70
2023/03/26 07:34:53;;;;;;;22.45;4.72;;;;;;;;;;4997251;28;20045;-72
2023/03/26 07:37:27;;;;;;;25.02;3.88;;;;;;;;;;4988852;28;20045;-72
2023/03/26 07:39:59;;;;;;;17.85;3.63;;;;;;;;;;4994153;28;20611;-71
2023/03/26 07:42:45;;;;;;;17.05;3.75;;;;;;;;;;4995719;28;20550;-72
2023/03/26 07:45:27;;;;;;;16.85;3.55;;;;;;;;;;4975752;28;20034;-71
2023/03/26 07:47:52;;;;;;;24.70;4.53;;;;;;;;;;4997458;28;20094;-72
2023/03/26 07:50:20;;;;;;;22.50;4.00;;;;;;;;;;4997571;28;20037;-71
2023/03/26 07:52:45;;;;;;;17.58;3.47;;;;;;;;;;4991174;28;20050;-71
2023/03/26 07:55:11;;;;;;;20.35;3.45;;;;;;;;;;4997400;28;20044;-71
2023/03/26 07:57:43;;;;;;;16.83;3.60;;;;;;;;;;4998196;28;20049;-71
2023/03/26 08:00:27;;;;;;;21.13;4.43;;;;;;;;;;4973342;28;20041;-70
2023/03/26 08:02:52;;;;;;;22.25;3.67;;;;;;;;;;4994449;28;20041;-72
2023/03/26 08:05:31;;;;;;;22.52;4.00;;;;;;;;;;4936826;28;20423;-70
2023/03/26 08:08:16;;;;;;;15.23;3.08;;;;;;;;;;4933790;28;20047;-72
2023/03/26 08:10:55;;;;;;;20.42;3.03;;;;;;;;;;4931269;28;20862;-72
2023/03/26 08:13:29;;;;;;;20.38;3.60;;;;;;;;;;4964735;28;20057;-72
2023/03/26 08:16:09;;;;;;;23.00;3.50;;;;;;;;;;4937115;28;20150;-70
2023/03/26 08:18:53;;;;;;;20.83;3.10;;;;;;;;;;4935259;28;20031;-70
2023/03/26 08:21:22;;;;;;;19.02;3.95;;;;;;;;;;4933838;28;20031;-71
2023/03/26 08:24:06;;;;;;;17.83;4.35;;;;;;;;;;4932794;28;22124;-70
2023/03/26 08:26:34;;;;;;;21.80;3.50;;;;;;;;;;4935965;28;20039;-72
2023/03/26 08:29:02;;;;;;;23.33;4.13;;;;;;;;;;4948418;28;20054;-71
2023/03/26 08:31:38;;;;;;;30.17;5.00;;;;;;;;;;4933218;28;20036;-73
2023/03/26 08:34:04;;;;;;;20.35;4.38;;;;;;;;;;4933876;28;20496;-73
2023/03/26 08:36:32;;;;;;;20.17;4.60;;;;;;;;;;4934678;28;20073;-73
2023/03/26 08:38:58;;;;;;;17.42;3.58;;;;;;;;;;4933590;28;20043;-74
2023/03/26 08:41:29;;;;;;;22.00;3.95;;;;;;;;;;4935040;28;20038;-73
2023/03/26 08:44:14;;;;;;;18.70;4.00;;;;;;;;;;4928423;28;20043;-71
2023/03/26 08:46:40;;;;;;;19.90;3.70;;;;;;;;;;4930024;28;20069;-72
2023/03/26 08:49:25;;;;;;;27.05;4.57;;;;;;;;;;4974434;28;20633;-71
2023/03/26 08:51:56;;;;;;;25.30;3.80;;;;;;;;;;5013470;28;20087;-72
2023/03/26 08:54:41;;;;;;;18.33;4.40;;;;;;;;;;4937075;28;20068;-72
2023/03/26 08:57:16;;;;;;;19.48;3.83;;;;;;;;;;4967787;28;20045;-72
2023/03/26 08:59:59;;;;;;;21.02;4.07;;;;;;;;;;4933207;28;20495;-71
2023/03/26 09:02:43;;;;;;;15.77;3.50;;;;;;;;;;4935299;28;20529;-72
2023/03/26 09:05:32;;;;;;;19.98;3.28;;;;;;;;;;4934001;28;20054;-73
2023/03/26 09:07:57;;;;;;;22.90;4.28;;;;;;;;;;4934033;28;20105;-71
2023/03/26 09:10:25;;;;;;;22.27;3.00;;;;;;;;;;4935564;28;20042;-71
2023/03/26 09:12:51;;;;;;;20.05;3.33;;;;;;;;;;4950371;28;20039;-73
2023/03/26 09:15:22;;;;;;;19.23;3.38;;;;;;;;;;4928210;28;20507;-71
2023/03/26 09:17:59;;;;;;;23.97;4.07;;;;;;;;;;4921230;28;20148;-71
2023/03/26 09:20:37;;;;;;;18.95;3.47;;;;;;;;;;4923083;28;20077;-71
2023/03/26 09:23:08;;;;;;;24.67;3.65;;;;;;;;;;4922555;28;20051;-71
2023/03/26 09:25:40;;;;;;;22.70;4.07;;;;;;;;;;4921598;28;20035;-71
2023/03/26 09:28:07;;;;;;;20.92;3.75;;;;;;;;;;4921594;28;20096;-71
2023/03/26 09:30:51;;;;;;;17.35;2.88;;;;;;;;;;4923057;28;20039;-73
2023/03/26 09:33:20;;;;;;;22.05;3.42;;;;;;;;;;4922881;28;22326;-72
2023/03/26 09:35:59;;;;;;;18.17;3.72;;;;;;;;;;4921683;28;20070;-72
2023/03/26 09:38:40;;;;;;;14.43;2.88;;;;;;;;;;4922068;28;20053;-71
2023/03/26 09:41:13;;;;;;;18.38;3.00;;;;;;;;;;4920502;28;20070;-73
2023/03/26 09:43:39;;;;;;;21.60;3.40;;;;;;;;;;4917625;28;20642;-73
2023/03/26 09:46:06;;;;;;;19.95;3.15;;;;;;;;;;4919411;28;20047;-70
2023/03/26 09:48:32;;;;;;;18.88;3.65;;;;;;;;;;4918872;28;20063;-73
2023/03/26 09:51:16;;;;;;;16.33;3.00;;;;;;;;;;4923149;28;20084;-72
2023/03/26 09:53:53;;;;;;;15.60;3.20;;;;;;;;;;4918630;28;20035;-72
2023/03/26 09:56:25;;;;;;;17.95;3.10;;;;;;;;;;4919771;28;20039;-74
2023/03/26 09:58:59;;;;;;;16.27;3.03;;;;;;;;;;4920293;28;20124;-71
2023/03/26 10:01:39;;;;;;;17.33;3.13;;;;;;;;;;4920757;28;20078;-72
2023/03/26 10:04:23;;;;;;;16.17;3.03;;;;;;;;;;4921234;28;20051;-72
2023/03/26 10:06:54;;;;;;;16.50;2.75;;;;;;;;;;4916574;28;20504;-71
2023/03/26 10:09:26;;;;;;;17.17;3.40;;;;;;;;;;4916121;28;20035;-72
2023/03/26 10:11:54;;;;;;;12.52;2.78;;;;;;;;;;4920592;28;20047;-73
2023/03/26 10:14:38;;;;;;;17.65;3.22;;;;;;;;;;4920559;28;20031;-73
2023/03/26 10:17:10;;;;;;;20.48;3.42;;;;;;;;;;4950936;28;20043;-71
2023/03/26 10:19:47;;;;;;;17.30;3.05;;;;;;;;;;4999774;28;20096;-72
2023/03/26 10:22:27;;;;;;;15.25;2.97;;;;;;;;;;4919748;28;20492;-71
2023/03/26 10:25:11;;;;;;;20.67;3.17;;;;;;;;;;4932247;28;20047;-72
2023/03/26 10:27:43;;;;;;;18.48;2.72;;;;;;;;;;4921036;28;21042;-71
2023/03/26 10:30:20;;;;;;;17.38;3.03;;;;;;;;;;4920060;28;20035;-72
2023/03/26 10:33:03;;;;;;;14.38;3.03;;;;;;;;;;4920632;28;22419;-71
2023/03/26 10:35:35;;;;;;;17.85;3.17;;;;;;;;;;4923473;28;20545;-72
2023/03/26 10:38:17;;;;;;;17.02;3.17;;;;;;;;;;4984861;28;20222;-74
2023/03/26 10:41:03;;;;;;;14.10;2.88;;;;;;;;;;4919933;28;20043;-73
2023/03/26 10:43:43;;;;;;;20.02;3.50;;;;;;;;;;4950337;28;20692;-72
2023/03/26 10:46:21;;;;;;;19.90;3.13;;;;;;;;;;4920160;28;20394;-72
2023/03/26 10:48:53;;;;;;;20.70;3.42;;;;;;;;;;4919422;28;21890;-72
2023/03/26 10:51:52;;;;;;;19.60;3.60;;;;;;;;;;4918886;28;20075;-73
2023/03/26 10:54:36;;;;;;;20.05;3.17;;;;;;;;;;4879362;28;20370;-71
2023/03/26 10:57:06;;;;;;;17.75;3.03;;;;;;;;;;4921270;28;22404;-74
2023/03/26 10:59:34;;;;;;;;;;;;;;;;;;4922359;28;20059;-72
2023/03/26 11:02:18;;;;;;;18.17;2.92;;;;;;;;;;4935943;28;19925;-71
2023/03/26 11:04:46;;;;;;;17.45;2.38;;;;;;;;;;4916270;28;20066;-70
2023/03/26 11:07:34;;;;;;;15.15;2.92;;;;;;;;;;4921630;28;20047;-72
2023/03/26 11:10:00;;;;;;;14.55;2.60;;;;;;;;;;4883266;28;20043;-71
2023/03/26 11:12:25;;;;;;;13.57;2.97;;;;;;;;;;4921578;28;20045;-70
2023/03/26 11:15:00;;;;;;;16.10;2.70;;;;;;;;;;4920388;28;20988;-73
2023/03/26 11:17:25;;;;;;;14.52;2.90;;;;;;;;;;4915828;28;20100;-72
2023/03/26 11:19:56;;;;;;;17.55;3.10;;;;;;;;;;4920156;28;20035;-72
2023/03/26 11:22:24;;;;;;;16.23;2.88;;;;;;;;;;4919106;28;20043;-73
2023/03/26 11:25:09;;;;;;;13.45;2.58;;;;;;;;;;4919601;28;20048;-72
2023/03/26 11:27:49;;;;;;;18.58;2.75;;;;;;;;;;4918802;28;20039;-73
2023/03/26 11:30:17;;;;;;;15.75;2.67;;;;;;;;;;4915769;28;20035;-73
2023/03/26 11:32:44;;;;;;;11.57;2.72;;;;;;;;;;4919995;28;20084;-73
2023/03/26 11:35:16;;;;;;;15.02;2.67;;;;;;;;;;4920266;28;20040;-71
2023/03/26 11:37:43;;;;;;;16.92;2.50;;;;;;;;;;4919114;28;20039;-72
2023/03/26 11:40:13;;;;;;;16.08;2.58;;;;;;;;;;4947107;28;20101;-69
2023/03/26 11:42:39;;;;;;;11.82;2.40;;;;;;;;;;4919171;28;20038;-73
2023/03/26 11:45:07;;;;;;;15.45;2.55;;;;;;;;;;4920643;28;20455;-71
2023/03/26 11:47:52;;;;;;;11.52;2.55;;;;;;;;;;4916896;28;20564;-71
2023/03/26 11:50:26;;;;;;;11.52;2.42;;;;;;;;;;4914799;28;20073;-72
2023/03/26 11:52:52;;;;;;;9.07;2.38;;;;;;;;;;4918037;28;20857;-71
2023/03/26 11:55:22;;;;;;;13.23;2.10;;;;;;;;;;4916875;28;20043;-69
2023/03/26 11:57:55;;;;;;;15.65;2.88;;;;;;;;;;4918412;28;20054;-74
2023/03/26 12:00:22;;;;;;;12.85;2.50;;;;;;;;;;4920661;28;20035;-73
2023/03/26 12:02:47;;;;;;;18.58;2.55;;;;;;;;;;4917951;28;20061;-72
2023/03/26 12:05:13;;;;;;;19.15;2.60;;;;;;;;;;4918374;28;20055;-72
2023/03/26 12:07:44;;;;;;;14.00;2.33;;;;;;;;;;4916814;28;20046;-73
2023/03/26 12:10:19;;;;;;;13.20;2.50;;;;;;;;;;4918504;28;20174;-72
2023/03/26 12:12:45;;;;;;;17.17;2.38;;;;;;;;;;4917129;28;20281;-74
2023/03/26 12:15:15;;;;;;;17.83;2.70;;;;;;;;;;4914044;28;20619;-73
2023/03/26 12:17:45;;;;;;;12.55;2.40;;;;;;;;;;4913591;28;20558;-74
2023/03/26 12:20:23;;;;;;;13.50;2.22;;;;;;;;;;4914749;28;20039;-72
2023/03/26 12:22:50;;;;;;;12.02;1.95;;;;;;;;;;4915072;28;20047;-73
2023/03/26 12:25:23;;;;;;;10.50;2.13;;;;;;;;;;4924599;28;20225;-72
2023/03/26 12:28:02;;;;;;;7.85;1.98;;;;;;;;;;4998360;28;20043;-74
2023/03/26 12:30:29;;;;;;;10.55;1.95;;;;;;;;;;4946735;28;20498;-73
2023/03/26 12:32:56;;;;;;;11.73;2.10;;;;;;;;;;4916466;28;20036;-73
2023/03/26 12:35:26;;;;;;;11.50;2.22;;;;;;;;;;4910310;28;20440;-72
2023/03/26 12:37:51;;;;;;;9.50;1.83;;;;;;;;;;4916258;28;20031;-72
2023/03/26 12:40:32;;;;;;;11.70;2.30;;;;;;;;;;4920402;28;20043;-73
2023/03/26 12:43:17;;;;;;;13.30;2.20;;;;;;;;;;4898602;28;20455;-74
2023/03/26 12:45:42;;;;;;;10.55;2.17;;;;;;;;;;4911057;28;20126;-73
2023/03/26 12:48:14;;;;;;;10.43;1.70;;;;;;;;;;4915309;28;20604;-71
2023/03/26 12:50:58;;;;;;;9.82;1.90;;;;;;;;;;4915189;28;20539;-73
2023/03/26 12:53:36;;;;;;;10.10;1.80;;;;;;;;;;4918505;28;20039;-72
2023/03/26 12:56:08;;;;;;;8.07;1.80;;;;;;;;;;4918302;28;20126;-73
2023/03/26 12:58:38;;;;;;;11.50;1.90;;;;;;;;;;4919417;28;20035;-76
2023/03/26 13:01:33;;;;;;;9.60;1.88;;;;;;;;;;4919761;28;20039;-71
2023/03/26 13:04:17;;;;;;;10.75;1.88;;;;;;;;;;4931745;28;20118;-73
2023/03/26 13:06:43;;;;;;;8.65;2.03;;;;;;;;;;4917990;28;20354;-72
2023/03/26 13:09:09;;;;;;;10.75;1.40;;;;;;;;;;4917539;28;20043;-70
2023/03/26 13:11:39;;;;;;;9.57;1.50;;;;;;;;;;4920086;28;21818;-74
2023/03/26 13:14:22;;;;;;;8.35;1.75;;;;;;;;;;4911893;28;20039;-72
2023/03/26 13:17:02;;;;;;;10.10;1.98;;;;;;;;;;4917452;28;20041;-72
2023/03/26 13:19:31;;;;;;;9.80;1.90;;;;;;;;;;4946530;28;20774;-74
2023/03/26 13:21:56;;;;;;;13.82;1.80;;;;;;;;;;4931859;28;20077;-73
2023/03/26 13:24:36;;;;;;;10.75;1.90;;;;;;;;;;4917628;28;20039;-72
2023/03/26 13:27:01;;;;;;;9.55;1.83;;;;;;;;;;4918520;28;20085;-73
2023/03/26 13:29:32;;;;;;;13.20;3.00;;;;;;;;;;4918070;28;20105;-73
2023/03/26 13:32:10;;;;;;;13.25;2.80;;;;;;;;;;4917650;28;20031;-73
2023/03/26 13:34:36;;;;;;;9.77;1.90;;;;;;;;;;4911769;28;20094;-73
2023/03/26 13:37:09;;;;;;;11.15;2.35;;;;;;;;;;4918404;28;20105;-70
2023/03/26 13:39:45;;;;;;;17.92;2.35;;;;;;;;;;4917777;28;20275;-71
2023/03/26 13:42:17;;;;;;;10.85;1.80;;;;;;;;;;4946499;28;20599;-72
2023/03/26 13:44:42;;;;;;;11.07;2.30;;;;;;;;;;4916677;28;20186;-72
2023/03/26 13:47:19;;;;;;;9.70;2.00;;;;;;;;;;4932289;28;20377;-72
2023/03/26 13:49:48;;;;;;;13.35;2.45;;;;;;;;;;4946779;28;20047;-69
2023/03/26 13:52:19;;;;;;;10.38;1.65;;;;;;;;;;4918518;28;20508;-72
2023/03/26 13:54:50;;;;;;;14.15;2.63;;;;;;;;;;4914010;28;20046;-73
2023/03/26 13:57:25;;;;;;;13.20;2.35;;;;;;;;;;4917045;28;20043;-70
2023/03/26 13:59:56;;;;;;;11.52;1.90;;;;;;;;;;4947084;28;20517;-72
2023/03/26 14:02:26;;;;;;;8.90;2.00;;;;;;;;;;4915419;28;20106;-73
2023/03/26 14:04:55;;;;;;;9.30;1.90;;;;;;;;;;4916517;28;20555;-71
2023/03/26 14:07:22;;;;;;;10.60;1.80;;;;;;;;;;4915572;28;20047;-73
2023/03/26 14:10:10;;;;;;;12.10;2.17;;;;;;;;;;4916355;28;20538;-72
2023/03/26 14:12:59;;;;;;;11.75;2.03;;;;;;;;;;4905025;28;20039;-74
2023/03/26 14:15:36;;;;;;;8.63;1.80;;;;;;;;;;4935719;28;20498;-74
2023/03/26 14:18:20;;;;;;;13.68;2.17;;;;;;;;;;4913708;28;20047;-74
2023/03/26 14:21:06;;;;;;;9.15;1.92;;;;;;;;;;4914175;28;20050;-73
2023/03/26 14:23:46;;;;;;;12.85;2.15;;;;;;;;;;4933269;28;20031;-72
2023/03/26 14:26:33;;;;;;;10.68;3.13;;;;;;;;;;4917045;28;20051;-75
2023/03/26 14:29:07;;;;;;;11.40;1.98;;;;;;;;;;4918039;28;20050;-74
2023/03/26 14:31:37;;;;;;;9.35;1.80;;;;;;;;;;4917345;28;20046;-74
2023/03/26 14:34:09;;;;;;;13.50;2.60;;;;;;;;;;4917365;28;20488;-71
2023/03/26 14:36:39;;;;;;;12.82;1.50;;;;;;;;;;4915461;28;20042;-72
2023/03/26 14:39:23;;;;;;;9.20;1.70;;;;;;;;;;4915097;28;20043;-72
2023/03/26 14:41:54;;;;;;;11.85;2.03;;;;;;;;;;4910215;28;20035;-72
2023/03/26 14:44:22;;;;;;;8.73;1.85;;;;;;;;;;4916895;28;20051;-72
2023/03/26 14:46:50;;;;;;;11.30;2.35;;;;;;;;;;4913006;28;20403;-72